London, Texas
Current Conditions -  °F | °C
As of 1:51 AM on Sunday 23 Nov 2014 (Local Time) from KJCT Reporting Station
Clear Clear  
Wind Chill: 51°   Ceiling: Unl
Heat Index: 51°   Visibility: 10mi
Dew Point: 50°   Wind: 0mph
Humidity: 96%   Direction: NA
Pressure: 29.73"   Gusts: NA
Location:  30.68°N, 99.58°W
Report Text: KJCT 230751Z AUTO 00000KT 10SM CLR 11/10 A2973 RMK AO2 SLP041 T01060100
Loading
Personal Weather Stations






























Interactive Weather Map New forecast layout! Learn more

10-Day Weather Forecast

Advertisements
Track Severe Weather on mobile